Time;durP1;ratioP1;P1;durP2;ratioP2;P2;SDS_P1;SDS_P2;PMS_P1;PMS_P2;Temp;Humidity;BMP_temperature;BMP_pressure;BME280_temperature;BME280_humidity;BME280_pressure;Samples;Min_cycle;Max_cycle;Signal;HPM_P1;HPM_P2
2021/05/15 00:00:00;;;;;;;3.28;3.03;;;;;;;10.86;68.22;100316.16;690989;28;23402;-64
2021/05/15 00:00:23;;;;;;;3.35;3.13;;;;;;;10.84;68.39;100316.34;691393;28;1279;-64
2021/05/15 00:00:44;;;;;;;3.38;3.08;;;;;;;10.84;68.45;100310.13;690383;28;35667;-64
2021/05/15 00:01:06;;;;;;;3.60;3.30;;;;;;;10.82;68.65;100313.84;691274;28;15284;-64
2021/05/15 00:01:28;;;;;;;3.50;3.15;;;;;;;10.83;68.68;100317.41;692240;28;914;-64
2021/05/15 00:01:49;;;;;;;3.53;3.20;;;;;;;10.84;68.42;100320.94;690218;28;46248;-64
2021/05/15 00:02:11;;;;;;;3.05;2.85;;;;;;;10.83;68.36;100320.09;691695;28;22264;-64
2021/05/15 00:02:32;;;;;;;3.03;2.83;;;;;;;10.84;68.30;100320.94;690706;28;45291;-64
2021/05/15 00:02:53;;;;;;;3.40;3.10;;;;;;;10.83;68.80;100322.81;691507;28;23355;-64
2021/05/15 00:03:14;;;;;;;3.45;3.20;;;;;;;10.82;68.75;100321.13;692184;28;12616;-64
2021/05/15 00:03:35;;;;;;;3.20;2.90;;;;;;;10.80;68.55;100317.78;692262;28;8710;-64
2021/05/15 00:03:56;;;;;;;3.35;3.05;;;;;;;10.78;68.61;100317.97;691014;28;23387;-64
2021/05/15 00:04:18;;;;;;;3.10;2.90;;;;;;;10.78;68.94;100319.81;692040;28;945;-64
2021/05/15 00:04:40;;;;;;;3.10;2.90;;;;;;;10.77;68.89;100323.56;692393;28;898;-64
2021/05/15 00:05:02;;;;;;;3.40;3.10;;;;;;;10.76;68.87;100317.28;692169;28;1480;-64
2021/05/15 00:05:24;;;;;;;3.42;3.13;;;;;;;10.77;68.80;100326.25;691159;28;14991;-64
2021/05/15 00:05:47;;;;;;;3.08;2.88;;;;;;;10.76;68.76;100322.69;691144;28;15142;-64
2021/05/15 00:06:16;;;;;;;5.00;3.15;;;;;;;10.77;69.12;100312.75;690767;28;15267;-64
2021/05/15 00:06:37;;;;;;;3.38;3.08;;;;;;;10.75;68.65;100318.34;687220;28;138819;-64
2021/05/15 00:06:58;;;;;;;3.60;2.97;;;;;;;10.74;68.96;100318.53;691444;28;22403;-64
2021/05/15 00:07:20;;;;;;;3.50;3.20;;;;;;;10.73;68.72;100319.53;691499;28;22392;-64
2021/05/15 00:07:41;;;;;;;3.35;3.05;;;;;;;10.72;69.16;100316.03;690477;28;45295;-64
2021/05/15 00:08:03;;;;;;;3.40;3.08;;;;;;;10.72;68.70;100321.41;691888;28;22151;-64
2021/05/15 00:08:25;;;;;;;3.10;2.80;;;;;;;10.72;69.16;100320.56;691599;28;28558;-64
2021/05/15 00:08:46;;;;;;;3.20;2.97;;;;;;;10.70;69.33;100318.06;690898;28;44421;-64
2021/05/15 00:09:07;;;;;;;3.05;2.85;;;;;;;10.69;69.05;100315.53;691615;28;23515;-64
2021/05/15 00:09:28;;;;;;;2.97;2.80;;;;;;;10.69;69.30;100323.63;690660;28;21322;-64
2021/05/15 00:09:50;;;;;;;3.58;3.30;;;;;;;10.68;69.17;100321.97;690715;28;22469;-64
2021/05/15 00:10:12;;;;;;;3.28;2.97;;;;;;;10.68;68.98;100319.28;690621;28;46071;-63
2021/05/15 00:10:34;;;;;;;3.03;2.83;;;;;;;10.68;69.06;100324.69;691329;28;32633;-64
2021/05/15 00:10:55;;;;;;;3.15;2.95;;;;;;;10.69;69.12;100323.63;691461;28;19905;-64
2021/05/15 00:11:17;;;;;;;3.42;3.13;;;;;;;10.67;69.43;100323.00;691722;28;22945;-64
2021/05/15 00:11:38;;;;;;;3.67;3.38;;;;;;;10.67;69.48;100318.44;689034;28;69323;-64
2021/05/15 00:11:59;;;;;;;3.50;3.20;;;;;;;10.67;69.49;100320.28;691191;28;22405;-64
2021/05/15 00:12:20;;;;;;;3.25;3.05;;;;;;;10.66;69.10;100318.63;691258;28;23506;-64
2021/05/15 00:12:41;;;;;;;3.30;3.10;;;;;;;10.65;69.17;100325.88;691429;28;23411;-64
2021/05/15 00:13:03;;;;;;;3.95;3.10;;;;;;;10.63;69.64;100323.38;691011;28;21547;-64
2021/05/15 00:13:24;;;;;;;5.53;3.33;;;;;;;10.61;69.20;100320.03;690583;28;16420;-64
2021/05/15 00:13:45;;;;;;;3.50;3.20;;;;;;;10.60;69.54;100322.91;690368;28;40589;-63
2021/05/15 00:14:06;;;;;;;4.30;3.20;;;;;;;10.59;69.48;100322.06;691822;28;19786;-64
2021/05/15 00:14:27;;;;;;;3.30;3.10;;;;;;;10.57;69.88;100329.53;691584;28;23611;-64
2021/05/15 00:14:50;;;;;;;3.20;2.90;;;;;;;10.58;69.88;100320.41;692059;28;1802;-63
2021/05/15 00:15:12;;;;;;;3.40;3.10;;;;;;;10.57;69.68;100318.72;689113;28;69496;-64
2021/05/15 00:15:33;;;;;;;3.58;3.30;;;;;;;10.57;70.01;100323.28;690864;28;44385;-63
2021/05/15 00:15:54;;;;;;;3.40;3.20;;;;;;;10.55;69.75;100320.78;691318;28;24601;-64
2021/05/15 00:16:16;;;;;;;3.40;3.10;;;;;;;10.55;70.10;100325.31;690071;28;39131;-64
2021/05/15 00:16:37;;;;;;;3.45;3.15;;;;;;;10.55;69.92;100319.91;690786;28;22402;-64
2021/05/15 00:16:58;;;;;;;3.53;3.05;;;;;;;10.56;69.79;100318.91;691781;28;23114;-63
2021/05/15 00:17:19;;;;;;;4.57;3.00;;;;;;;10.56;69.69;100321.59;690721;28;23540;-64
2021/05/15 00:17:41;;;;;;;3.45;3.17;;;;;;;10.55;69.84;100319.91;690428;28;45259;-64
2021/05/15 00:18:02;;;;;;;3.47;3.17;;;;;;;10.54;70.05;100318.25;691317;28;23474;-64
2021/05/15 00:18:23;;;;;;;3.40;3.10;;;;;;;10.54;69.62;100326.38;690049;28;46285;-63
2021/05/15 00:18:44;;;;;;;3.20;2.90;;;;;;;10.54;70.03;100323.66;691527;28;21524;-64
2021/05/15 00:19:05;;;;;;;3.17;2.88;;;;;;;10.55;69.56;100325.31;690737;28;22494;-63
2021/05/15 00:19:27;;;;;;;3.60;3.30;;;;;;;10.55;69.89;100323.47;690350;28;23415;-64
2021/05/15 00:19:48;;;;;;;3.60;3.30;;;;;;;10.52;69.77;100323.84;692434;28;46898;-64
2021/05/15 00:20:12;;;;;;;3.97;3.28;;;;;;;10.54;69.68;100323.66;693617;28;21963;-64
2021/05/15 00:20:33;;;;;;;3.40;3.10;;;;;;;10.54;69.80;100323.66;690195;28;45109;-64
2021/05/15 00:20:55;;;;;;;3.40;3.20;;;;;;;10.55;69.32;100325.31;691176;28;21555;-64
2021/05/15 00:21:16;;;;;;;3.60;3.30;;;;;;;10.55;69.67;100322.63;691418;28;15659;-64
2021/05/15 00:21:37;;;;;;;4.07;3.10;;;;;;;10.53;69.76;100322.84;691059;28;18264;-64
2021/05/15 00:21:58;;;;;;;3.45;3.08;;;;;;;10.52;69.82;100320.31;690651;28;46400;-63
2021/05/15 00:22:19;;;;;;;3.10;2.80;;;;;;;10.51;69.24;100326.75;691379;28;22403;-64
2021/05/15 00:22:41;;;;;;;3.97;2.90;;;;;;;10.50;69.64;100327.75;691573;28;22408;-64
2021/05/15 00:23:02;;;;;;;3.30;3.00;;;;;;;10.48;69.82;100330.63;691944;28;10405;-65
2021/05/15 00:23:23;;;;;;;3.58;3.28;;;;;;;10.48;69.62;100324.41;691541;28;22428;-64
2021/05/15 00:23:44;;;;;;;3.53;3.22;;;;;;;10.48;69.69;100316.31;691547;28;24099;-63
2021/05/15 00:24:07;;;;;;;3.17;2.88;;;;;;;10.48;69.87;100327.09;691768;28;21169;-64
2021/05/15 00:24:28;;;;;;;3.20;3.00;;;;;;;10.47;69.91;100320.88;690134;28;69544;-64
2021/05/15 00:24:49;;;;;;;3.30;3.00;;;;;;;10.48;69.56;100324.41;691547;28;22472;-64
2021/05/15 00:25:12;;;;;;;3.10;2.90;;;;;;;10.48;69.37;100324.41;691338;28;23407;-64
2021/05/15 00:25:34;;;;;;;3.33;3.13;;;;;;;10.47;69.46;100323.59;690538;28;55372;-63
2021/05/15 00:25:56;;;;;;;3.50;3.20;;;;;;;10.46;69.75;100324.59;690507;28;44585;-64
2021/05/15 00:26:17;;;;;;;3.40;2.88;;;;;;;10.45;69.50;100318.38;690314;28;36478;-64
2021/05/15 00:26:38;;;;;;;3.78;3.33;;;;;;;10.43;69.48;100328.50;690621;28;22502;-64
2021/05/15 00:26:59;;;;;;;3.40;3.10;;;;;;;10.44;69.42;100321.25;691172;28;21587;-64
2021/05/15 00:27:20;;;;;;;3.92;2.90;;;;;;;10.46;69.51;100327.28;691246;28;23333;-64
2021/05/15 00:27:42;;;;;;;4.10;3.15;;;;;;;10.42;69.48;100321.44;690129;28;44448;-64
2021/05/15 00:28:03;;;;;;;3.55;3.25;;;;;;;10.44;69.45;100323.97;689740;28;42013;-64
2021/05/15 00:28:24;;;;;;;3.83;3.53;;;;;;;10.44;69.66;100326.66;691368;28;20963;-64
2021/05/15 00:28:46;;;;;;;3.80;3.50;;;;;;;10.43;69.53;100327.66;691680;28;21389;-63
2021/05/15 00:29:08;;;;;;;3.85;3.50;;;;;;;10.42;69.83;100329.53;691672;28;22358;-64
2021/05/15 00:29:29;;;;;;;3.50;3.20;;;;;;;10.42;69.54;100321.44;690289;28;46372;-63
2021/05/15 00:29:50;;;;;;;4.10;3.70;;;;;;;10.40;69.71;100320.78;689618;28;42433;-64
2021/05/15 00:30:13;;;;;;;3.63;3.37;;;;;;;10.39;69.62;100321.81;690232;28;46406;-64
2021/05/15 00:30:35;;;;;;;3.72;3.30;;;;;;;10.37;69.99;100328.41;691501;28;16929;-64
2021/05/15 00:30:56;;;;;;;3.50;3.20;;;;;;;10.36;69.59;100321.31;691452;28;21549;-64
2021/05/15 00:31:17;;;;;;;4.75;3.38;;;;;;;10.36;70.00;100322.19;690952;28;39196;-64
2021/05/15 00:31:39;;;;;;;4.40;3.33;;;;;;;10.35;69.69;100317.78;690423;28;22455;-64
2021/05/15 00:32:00;;;;;;;3.80;3.50;;;;;;;10.35;70.13;100322.38;691000;28;23387;-63
2021/05/15 00:32:21;;;;;;;3.47;3.17;;;;;;;10.33;69.64;100319.84;691403;28;23464;-64
2021/05/15 00:32:43;;;;;;;3.20;3.00;;;;;;;10.33;69.81;100327.09;691446;28;22388;-64
2021/05/15 00:33:04;;;;;;;3.45;3.15;;;;;;;10.32;69.91;100323.53;690381;28;46510;-64
2021/05/15 00:33:25;;;;;;;3.75;3.35;;;;;;;10.32;70.10;100320.84;690348;28;46370;-63
2021/05/15 00:33:47;;;;;;;3.63;3.20;;;;;;;10.31;69.92;100327.25;691885;28;22372;-64
2021/05/15 00:34:08;;;;;;;4.07;3.22;;;;;;;10.28;69.75;100317.69;691739;28;22400;-64
2021/05/15 00:34:29;;;;;;;3.60;3.30;;;;;;;10.27;69.80;100317.88;691159;28;15640;-64
2021/05/15 00:34:51;;;;;;;3.70;3.40;;;;;;;10.25;70.27;100323.44;691077;28;22132;-64
2021/05/15 00:35:13;;;;;;;4.32;3.45;;;;;;;10.23;70.43;100327.34;691225;28;22406;-64
2021/05/15 00:35:34;;;;;;;6.00;3.47;;;;;;;10.21;69.92;100316.72;690443;28;45137;-64
2021/05/15 00:35:55;;;;;;;3.50;3.20;;;;;;;10.21;70.40;100326.69;691391;28;23505;-64
2021/05/15 00:36:16;;;;;;;3.67;3.38;;;;;;;10.18;70.38;100322.50;690977;28;22374;-63
2021/05/15 00:36:37;;;;;;;3.63;3.40;;;;;;;10.16;70.01;100327.25;690657;28;22416;-64
2021/05/15 00:36:59;;;;;;;3.80;3.50;;;;;;;10.16;70.09;100327.25;691212;28;21527;-63
2021/05/15 00:37:20;;;;;;;4.15;3.75;;;;;;;10.15;70.26;100319.34;690739;28;44191;-64
2021/05/15 00:37:41;;;;;;;3.75;3.45;;;;;;;10.14;70.01;100320.34;691219;28;22386;-64
2021/05/15 00:38:02;;;;;;;3.75;3.38;;;;;;;10.13;70.60;100322.22;691434;28;22004;-63
2021/05/15 00:38:23;;;;;;;4.63;3.65;;;;;;;10.10;70.22;100317.19;691139;28;22405;-64
2021/05/15 00:38:44;;;;;;;3.83;3.47;;;;;;;10.10;70.36;100328.81;691796;28;21544;-63
2021/05/15 00:39:07;;;;;;;4.05;3.65;;;;;;;10.11;70.32;100326.97;691654;28;21311;-64
2021/05/15 00:39:28;;;;;;;3.88;3.50;;;;;;;10.11;70.60;100316.19;689520;28;67498;-63
2021/05/15 00:39:49;;;;;;;3.47;3.20;;;;;;;10.11;70.62;100321.56;690942;28;22335;-64
2021/05/15 00:40:13;;;;;;;3.47;3.28;;;;;;;10.11;70.18;100321.56;691941;28;21653;-64
2021/05/15 00:40:34;;;;;;;3.90;3.60;;;;;;;10.12;70.41;100319.72;688724;28;92338;-64
2021/05/15 00:40:55;;;;;;;4.00;3.70;;;;;;;10.09;70.58;100321.75;690799;28;43358;-64
2021/05/15 00:41:17;;;;;;;3.80;3.40;;;;;;;10.08;70.61;100321.94;691761;28;23403;-64
2021/05/15 00:41:39;;;;;;;3.65;3.30;;;;;;;10.08;70.23;100324.66;691118;28;19258;-64
2021/05/15 00:42:00;;;;;;;3.78;3.47;;;;;;;10.06;70.54;100319.44;689955;28;44403;-63
2021/05/15 00:42:21;;;;;;;3.80;3.40;;;;;;;10.06;70.23;100318.56;691082;28;22370;-64
2021/05/15 00:42:42;;;;;;;4.53;3.45;;;;;;;10.05;70.51;100314.22;691352;28;21526;-64
2021/05/15 00:43:05;;;;;;;4.10;3.45;;;;;;;10.04;70.74;100320.63;689206;28;37220;-64
2021/05/15 00:43:28;;;;;;;3.78;3.47;;;;;;;10.02;70.90;100320.81;690026;28;44435;-64
2021/05/15 00:43:58;;;;;;;3.40;3.20;;;;;;;10.02;70.30;100322.69;690509;28;67325;-64
2021/05/15 00:44:30;;;;;;;3.60;3.30;;;;;;;9.98;70.82;100319.50;688203;28;137730;-64
2021/05/15 00:44:51;;;;;;;3.75;3.35;;;;;;;9.97;70.85;100320.53;688169;28;136144;-64
2021/05/15 00:45:13;;;;;;;3.63;3.33;;;;;;;9.97;70.64;100325.94;692036;28;23397;-63
2021/05/15 00:45:34;;;;;;;3.65;3.35;;;;;;;9.98;70.85;100326.75;691710;28;44387;-63
2021/05/15 00:45:55;;;;;;;4.00;3.17;;;;;;;9.96;70.68;100324.25;693940;28;24410;-64
2021/05/15 00:46:16;;;;;;;3.78;3.47;;;;;;;9.96;70.81;100324.25;691582;28;30412;-64
2021/05/15 00:46:38;;;;;;;3.55;3.30;;;;;;;9.95;71.02;100319.84;691302;28;21534;-64
2021/05/15 00:46:59;;;;;;;3.60;3.30;;;;;;;9.95;70.82;100319.84;691706;28;23508;-64
2021/05/15 00:47:22;;;;;;;4.43;3.25;;;;;;;9.94;70.61;100320.91;691554;28;21508;-64
2021/05/15 00:47:43;;;;;;;3.75;3.45;;;;;;;9.93;70.78;100325.44;689405;28;69251;-64
2021/05/15 00:48:05;;;;;;;3.75;3.45;;;;;;;9.92;70.74;100318.38;691360;28;23528;-64
2021/05/15 00:48:26;;;;;;;3.67;3.38;;;;;;;9.91;71.06;100322.09;690071;28;44509;-64
2021/05/15 00:48:47;;;;;;;3.60;3.40;;;;;;;9.87;70.77;100325.34;690502;28;45256;-64
2021/05/15 00:49:09;;;;;;;3.87;3.57;;;;;;;9.89;70.99;100316.03;691359;28;19228;-64
2021/05/15 00:49:30;;;;;;;3.75;3.45;;;;;;;9.89;70.93;100316.03;691733;28;44700;-64
2021/05/15 00:49:52;;;;;;;3.70;3.40;;;;;;;9.89;70.88;100316.03;693841;28;21521;-64
2021/05/15 00:50:13;;;;;;;3.72;3.42;;;;;;;9.89;71.10;100312.50;692819;28;47363;-64
2021/05/15 00:50:35;;;;;;;3.83;3.50;;;;;;;9.91;70.59;100318.56;694167;28;8602;-63
2021/05/15 00:50:56;;;;;;;3.60;3.30;;;;;;;9.91;70.67;100321.25;693469;28;42413;-64
2021/05/15 00:51:17;;;;;;;5.55;4.32;;;;;;;9.91;70.42;100322.09;692996;28;22402;-64
2021/05/15 00:51:38;;;;;;;6.05;4.60;;;;;;;9.90;70.54;100317.72;690702;28;22417;-64
2021/05/15 00:51:59;;;;;;;4.38;3.53;;;;;;;9.92;70.83;100320.22;691229;28;23252;-64
2021/05/15 00:52:21;;;;;;;4.00;3.50;;;;;;;9.90;70.50;100314.19;692052;28;22384;-64
2021/05/15 00:52:43;;;;;;;4.85;3.50;;;;;;;9.91;70.82;100319.38;690681;28;46417;-63
2021/05/15 00:53:04;;;;;;;4.28;3.42;;;;;;;9.90;70.49;100317.72;691159;28;7748;-64
2021/05/15 00:53:25;;;;;;;5.75;3.47;;;;;;;9.90;70.78;100319.56;690495;28;44264;-64
2021/05/15 00:53:46;;;;;;;4.10;3.42;;;;;;;9.87;70.81;100309.16;691634;28;22418;-64
2021/05/15 00:54:10;;;;;;;3.70;3.20;;;;;;;9.87;70.57;100311.84;691408;28;21497;-64
2021/05/15 00:54:31;;;;;;;4.60;3.53;;;;;;;9.86;70.67;100318.28;689508;28;73375;-64
2021/05/15 00:54:53;;;;;;;3.95;3.10;;;;;;;9.85;70.51;100313.91;691091;28;22376;-63
2021/05/15 00:55:15;;;;;;;3.75;3.30;;;;;;;9.85;70.38;100314.72;691272;28;43224;-64
2021/05/15 00:55:37;;;;;;;4.10;3.70;;;;;;;9.85;71.03;100313.91;690306;28;45239;-64
2021/05/15 00:56:00;;;;;;;4.18;3.47;;;;;;;9.85;70.91;100309.34;690400;28;45335;-63
2021/05/15 00:56:21;;;;;;;3.67;3.13;;;;;;;9.85;70.39;100314.72;688996;28;69153;-64
2021/05/15 00:56:43;;;;;;;3.63;3.33;;;;;;;9.85;70.32;100316.59;691111;28;21560;-64
2021/05/15 00:57:05;;;;;;;4.05;3.50;;;;;;;9.84;70.56;100317.59;690671;28;21611;-64
2021/05/15 00:57:27;;;;;;;4.53;3.60;;;;;;;9.83;70.52;100310.56;689899;28;69183;-64
2021/05/15 00:57:48;;;;;;;3.78;3.47;;;;;;;9.82;70.43;100315.09;691617;28;8698;-64
2021/05/15 00:58:09;;;;;;;3.85;3.55;;;;;;;9.81;70.11;100315.28;691382;28;19471;-64
2021/05/15 00:58:30;;;;;;;3.70;3.40;;;;;;;9.81;70.54;100315.28;691001;28;21459;-64
2021/05/15 00:58:52;;;;;;;3.33;3.13;;;;;;;9.81;70.17;100315.28;691045;28;22401;-64
2021/05/15 00:59:14;;;;;;;3.45;3.17;;;;;;;9.81;70.53;100315.28;690390;28;46323;-64
2021/05/15 00:59:36;;;;;;;4.60;3.30;;;;;;;9.80;70.70;100310.91;689867;28;46445;-64
2021/05/15 00:59:57;;;;;;;5.13;3.60;;;;;;;9.78;70.27;100312.94;690231;28;45112;-64
2021/05/15 01:00:19;;;;;;;4.03;3.63;;;;;;;9.77;70.45;100308.59;691280;28;22419;-64
2021/05/15 01:00:40;;;;;;;3.60;3.30;;;;;;;9.80;70.62;100308.22;690556;28;22396;-64
2021/05/15 01:01:01;;;;;;;3.70;3.40;;;;;;;9.79;70.53;100312.75;689947;28;44136;-64
2021/05/15 01:01:22;;;;;;;3.47;3.17;;;;;;;9.78;70.35;100318.34;691630;28;22401;-64
2021/05/15 01:01:44;;;;;;;3.58;3.22;;;;;;;9.79;70.50;100309.22;690973;28;22414;-64
2021/05/15 01:02:10;;;;;;;3.63;3.20;;;;;;;9.79;70.65;100317.31;690771;28;37237;-64
2021/05/15 01:02:31;;;;;;;3.85;3.42;;;;;;;9.79;70.51;100318.16;687847;28;65141;-64
2021/05/15 01:02:52;;;;;;;4.07;3.30;;;;;;;9.78;70.77;100310.25;690280;28;897;-64
2021/05/15 01:03:13;;;;;;;4.80;3.40;;;;;;;9.78;70.63;100305.72;689253;28;22490;-64
2021/05/15 01:03:34;;;;;;;4.88;3.35;;;;;;;9.79;70.19;100314.63;690456;28;5822;-64
2021/05/15 01:03:56;;;;;;;3.80;3.40;;;;;;;9.79;70.52;100317.31;690035;28;13143;-63
2021/05/15 01:04:17;;;;;;;3.67;3.38;;;;;;;9.78;70.44;100312.94;690436;28;21051;-63
2021/05/15 01:04:38;;;;;;;3.65;3.20;;;;;;;9.79;70.52;100314.63;690843;28;23462;-64
2021/05/15 01:04:59;;;;;;;3.60;3.30;;;;;;;9.80;70.21;100310.91;689878;28;46310;-64
2021/05/15 01:05:21;;;;;;;3.53;3.22;;;;;;;9.78;70.58;100307.53;691606;28;23403;-64
2021/05/15 01:05:42;;;;;;;3.40;3.20;;;;;;;9.80;70.58;100313.63;691284;28;14327;-63
2021/05/15 01:06:03;;;;;;;3.35;3.15;;;;;;;9.79;70.33;100317.31;690609;28;26299;-64
2021/05/15 01:06:25;;;;;;;3.95;3.65;;;;;;;9.78;70.43;100313.81;689161;28;44769;-64
2021/05/15 01:06:46;;;;;;;4.18;3.78;;;;;;;9.77;70.13;100313.97;691966;28;22305;-64
2021/05/15 01:07:09;;;;;;;3.30;3.00;;;;;;;9.75;70.12;100316.84;692672;28;21322;-64
2021/05/15 01:07:30;;;;;;;3.47;3.17;;;;;;;9.75;70.51;100316.84;691042;28;69282;-64
2021/05/15 01:07:51;;;;;;;3.45;3.25;;;;;;;9.73;70.28;100318.88;691758;28;45277;-64
2021/05/15 01:08:12;;;;;;;3.40;3.10;;;;;;;9.72;70.08;100314.53;691155;28;23487;-64
2021/05/15 01:08:33;;;;;;;3.85;3.45;;;;;;;9.72;70.56;100312.66;691270;28;22406;-64
2021/05/15 01:08:55;;;;;;;4.72;3.42;;;;;;;9.70;70.58;100320.09;691096;28;23230;-64
2021/05/15 01:09:16;;;;;;;4.78;3.70;;;;;;;9.71;70.50;100315.53;690350;28;45791;-64
2021/05/15 01:09:38;;;;;;;3.60;3.40;;;;;;;9.68;70.59;100315.91;691145;28;19903;-64
2021/05/15 01:10:06;;;;;;;3.50;3.20;;;;;;;9.70;70.07;100316.53;689475;28;60589;-64
2021/05/15 01:10:27;;;;;;;3.67;3.38;;;;;;;9.71;70.27;100315.53;690900;28;36431;-64
2021/05/15 01:10:49;;;;;;;4.10;3.60;;;;;;;9.69;70.71;100315.72;690900;28;23775;-64
2021/05/15 01:11:10;;;;;;;4.00;3.60;;;;;;;9.70;70.78;100320.09;690870;28;25045;-63
2021/05/15 01:11:31;;;;;;;3.60;3.30;;;;;;;9.69;70.43;100317.59;693157;28;22551;-63
2021/05/15 01:11:52;;;;;;;3.85;3.55;;;;;;;9.69;70.56;100314.88;693793;28;23866;-63
2021/05/15 01:12:14;;;;;;;3.65;3.35;;;;;;;9.68;70.73;100311.34;693876;28;18123;-64
2021/05/15 01:12:43;;;;;;;4.40;3.50;;;;;;;9.67;70.85;100316.91;693829;28;24419;-64
2021/05/15 01:13:06;;;;;;;4.93;3.30;;;;;;;9.66;70.63;100317.94;689856;28;137910;-64
2021/05/15 01:13:31;;;;;;;3.63;3.33;;;;;;;9.65;70.76;100316.25;690166;28;70169;-64
2021/05/15 01:13:53;;;;;;;3.60;3.30;;;;;;;9.62;70.62;100308.53;688508;28;111937;-64
2021/05/15 01:14:15;;;;;;;3.55;3.33;;;;;;;9.60;70.89;100310.59;690444;28;46347;-64
2021/05/15 01:14:37;;;;;;;3.83;3.35;;;;;;;9.60;70.45;100314.09;691180;28;23439;-63
2021/05/15 01:14:59;;;;;;;3.92;3.30;;;;;;;9.60;70.66;100314.09;689057;28;69157;-63
2021/05/15 01:15:21;;;;;;;4.43;3.43;;;;;;;9.60;70.57;100315.97;690364;28;44544;-64
2021/05/15 01:15:42;;;;;;;4.10;3.40;;;;;;;9.59;70.71;100315.13;688893;28;67487;-63
2021/05/15 01:16:05;;;;;;;3.30;3.10;;;;;;;9.55;70.71;100314.66;691827;28;22423;-63
2021/05/15 01:16:27;;;;;;;3.50;3.17;;;;;;;9.59;70.58;100317.81;688251;28;86566;-64
2021/05/15 01:16:49;;;;;;;3.58;3.28;;;;;;;9.59;70.63;100317.81;691036;28;22923;-62
2021/05/15 01:17:10;;;;;;;3.50;3.20;;;;;;;9.61;70.72;100320.31;692330;28;43706;-63
2021/05/15 01:17:32;;;;;;;3.50;3.20;;;;;;;9.61;70.84;100318.50;692384;28;46374;-63
2021/05/15 01:17:53;;;;;;;3.65;3.35;;;;;;;9.61;70.96;100325.72;691378;28;18052;-63
2021/05/15 01:18:14;;;;;;;3.60;3.30;;;;;;;9.61;70.91;100321.19;689990;28;43502;-64
2021/05/15 01:18:35;;;;;;;3.63;3.28;;;;;;;9.63;70.83;100323.69;690406;28;22417;-63
2021/05/15 01:18:57;;;;;;;4.43;3.75;;;;;;;9.64;70.42;100326.22;691028;28;24315;-63
2021/05/15 01:19:18;;;;;;;3.70;3.40;;;;;;;9.64;70.44;100320.81;689964;28;46340;-64
2021/05/15 01:19:40;;;;;;;4.10;3.30;;;;;;;9.65;70.49;100322.47;690819;28;23437;-63
2021/05/15 01:20:02;;;;;;;4.25;3.40;;;;;;;9.66;70.36;100323.34;691065;28;21817;-63
2021/05/15 01:20:25;;;;;;;3.88;3.42;;;;;;;9.66;70.37;100331.44;690360;28;40226;-63
2021/05/15 01:20:46;;;;;;;4.80;3.60;;;;;;;9.66;70.59;100320.63;690127;28;44539;-64
2021/05/15 01:21:08;;;;;;;3.72;3.33;;;;;;;9.66;70.30;100315.25;691018;28;22132;-64
2021/05/15 01:21:29;;;;;;;3.60;3.30;;;;;;;9.65;70.43;100322.47;690435;28;47351;-62
2021/05/15 01:21:50;;;;;;;3.60;3.30;;;;;;;9.64;70.73;100323.53;691300;28;23404;-63
2021/05/15 01:22:13;;;;;;;3.78;3.50;;;;;;;9.63;70.44;100319.13;691477;28;22048;-63
2021/05/15 01:22:34;;;;;;;3.80;3.35;;;;;;;9.66;70.33;100328.72;688894;28;90495;-64
2021/05/15 01:22:56;;;;;;;4.22;3.25;;;;;;;9.67;70.53;100323.16;691565;28;21328;-63
2021/05/15 01:23:17;;;;;;;4.35;3.42;;;;;;;9.67;70.45;100323.16;690988;28;22385;-63
2021/05/15 01:23:38;;;;;;;4.53;3.30;;;;;;;9.66;70.70;100321.47;691230;28;23423;-63
2021/05/15 01:23:59;;;;;;;3.20;3.00;;;;;;;9.66;70.62;100321.47;690994;28;21703;-63
2021/05/15 01:24:21;;;;;;;3.33;3.13;;;;;;;9.65;70.32;100327.88;690639;28;46322;-62
2021/05/15 01:24:43;;;;;;;3.67;3.38;;;;;;;9.65;70.57;100322.47;691053;28;22221;-63
2021/05/15 01:25:05;;;;;;;3.50;3.20;;;;;;;9.64;70.39;100323.53;688950;28;69382;-64
2021/05/15 01:25:27;;;;;;;3.17;2.90;;;;;;;9.63;70.66;100326.41;691269;28;22198;-63
2021/05/15 01:25:48;;;;;;;3.28;3.08;;;;;;;9.62;70.67;100319.31;691633;28;13179;-63
2021/05/15 01:26:14;;;;;;;3.58;3.20;;;;;;;9.60;70.67;100316.81;690896;28;23434;-63
2021/05/15 01:26:35;;;;;;;3.30;2.97;;;;;;;9.60;70.32;100321.38;687603;28;115162;-63
2021/05/15 01:26:56;;;;;;;3.30;3.10;;;;;;;9.59;70.37;100322.38;691038;28;22259;-63
2021/05/15 01:27:17;;;;;;;3.17;2.97;;;;;;;9.59;70.59;100320.50;691419;28;21542;-63
2021/05/15 01:27:38;;;;;;;3.28;3.08;;;;;;;9.57;70.70;100312.59;690571;28;46340;-63
2021/05/15 01:27:59;;;;;;;4.05;3.13;;;;;;;9.58;70.77;100316.16;691387;28;22498;-63
2021/05/15 01:28:21;;;;;;;4.78;3.42;;;;;;;9.56;71.22;100318.16;691551;28;1783;-63
2021/05/15 01:28:42;;;;;;;3.85;3.42;;;;;;;9.56;70.73;100313.63;691306;28;21542;-63
2021/05/15 01:29:05;;;;;;;4.10;3.60;;;;;;;9.55;71.12;100316.50;690641;28;46374;-63
2021/05/15 01:29:27;;;;;;;3.40;3.10;;;;;;;9.55;70.86;100314.66;689684;28;46348;-63
2021/05/15 01:29:49;;;;;;;3.40;3.10;;;;;;;9.54;71.10;100317.53;690535;28;46415;-63
2021/05/15 01:30:12;;;;;;;4.53;3.30;;;;;;;9.51;70.59;100316.03;690003;28;64040;-63
2021/05/15 01:30:33;;;;;;;4.40;3.20;;;;;;;9.50;70.79;100316.22;690650;28;34801;-63
2021/05/15 01:30:54;;;;;;;3.70;3.35;;;;;;;9.50;70.69;100310.84;692093;28;10389;-63
2021/05/15 01:31:16;;;;;;;4.85;3.28;;;;;;;9.51;70.60;100309.78;691511;28;23489;-63
2021/05/15 01:31:38;;;;;;;5.65;3.25;;;;;;;9.50;70.53;100308.13;693136;28;22205;-63
2021/05/15 01:31:59;;;;;;;4.80;2.95;;;;;;;9.51;70.58;100307.97;691625;28;46330;-63
2021/05/15 01:32:20;;;;;;;3.35;3.10;;;;;;;9.52;70.81;100311.47;694091;28;23420;-63
2021/05/15 01:32:42;;;;;;;3.70;3.40;;;;;;;9.52;70.53;100308.78;693981;28;24322;-63
2021/05/15 01:33:04;;;;;;;3.40;3.10;;;;;;;9.52;70.48;100309.63;692023;28;69429;-63
2021/05/15 01:33:25;;;;;;;3.75;3.45;;;;;;;9.54;70.97;100313.00;692484;28;23390;-63
2021/05/15 01:33:46;;;;;;;4.25;3.70;;;;;;;9.54;70.50;100312.13;690958;28;22408;-63
2021/05/15 01:34:08;;;;;;;4.90;3.05;;;;;;;9.55;70.38;100314.66;690104;28;47386;-63
2021/05/15 01:34:29;;;;;;;3.45;3.15;;;;;;;9.55;70.66;100308.44;690827;28;22335;-63
2021/05/15 01:34:50;;;;;;;3.75;3.40;;;;;;;9.55;70.26;100311.13;692071;28;23462;-63
2021/05/15 01:35:13;;;;;;;3.60;3.30;;;;;;;9.54;70.47;100310.28;692356;28;21524;-63
2021/05/15 01:35:34;;;;;;;3.78;3.40;;;;;;;9.55;70.40;100311.13;690830;28;69346;-63
2021/05/15 01:35:55;;;;;;;3.50;3.20;;;;;;;9.55;70.33;100311.94;692516;28;23411;-63
2021/05/15 01:36:18;;;;;;;3.80;3.50;;;;;;;9.55;69.94;100314.66;691873;28;21284;-63
2021/05/15 01:36:40;;;;;;;3.60;3.30;;;;;;;9.55;69.86;100311.13;689951;28;90514;-63
2021/05/15 01:37:01;;;;;;;3.97;3.30;;;;;;;9.55;70.33;100313.81;693424;28;21547;-63
2021/05/15 01:37:22;;;;;;;3.75;3.40;;;;;;;9.54;69.96;100310.28;693132;28;21609;-63
2021/05/15 01:37:44;;;;;;;3.43;3.13;;;;;;;9.55;69.95;100309.25;689729;28;46315;-63
2021/05/15 01:38:05;;;;;;;3.22;3.03;;;;;;;9.54;69.96;100313.00;689851;28;46374;-62
2021/05/15 01:38:27;;;;;;;3.30;3.03;;;;;;;9.54;70.19;100309.44;690957;28;23441;-63
2021/05/15 01:38:48;;;;;;;3.70;3.10;;;;;;;9.55;69.89;100311.13;689895;28;44454;-63
2021/05/15 01:39:12;;;;;;;4.47;3.33;;;;;;;9.52;70.13;100311.47;691626;28;21537;-63
2021/05/15 01:39:33;;;;;;;3.35;3.13;;;;;;;9.51;70.07;100296.31;688185;28;92808;-63
2021/05/15 01:39:55;;;;;;;3.33;3.13;;;;;;;9.52;69.72;100306.09;690868;28;22399;-63
2021/05/15 01:40:16;;;;;;;3.60;3.30;;;;;;;9.53;69.76;100308.59;690456;28;46406;-64
2021/05/15 01:40:38;;;;;;;3.67;3.38;;;;;;;9.54;69.82;100307.59;691751;28;22405;-63
2021/05/15 01:41:03;;;;;;;3.88;3.47;;;;;;;9.54;69.74;100314.81;691430;28;46297;-63
2021/05/15 01:41:24;;;;;;;3.53;3.28;;;;;;;9.52;70.38;100309.63;689162;28;113528;-63
2021/05/15 01:41:45;;;;;;;3.53;3.15;;;;;;;9.50;69.96;100305.44;692222;28;22403;-63
2021/05/15 01:42:06;;;;;;;3.75;3.30;;;;;;;9.51;70.20;100304.41;692528;28;22420;-62
2021/05/15 01:42:28;;;;;;;3.22;3.03;;;;;;;9.51;70.60;100312.50;692103;28;22490;-63
2021/05/15 01:42:49;;;;;;;3.35;3.10;;;;;;;9.49;70.30;100301.88;691485;28;46540;-63